createdAt,value
2019-02-07T00:02:16.283Z,30.27
2019-02-07T00:04:47.965Z,30.20
2019-02-07T00:07:19.608Z,31.20
2019-02-07T00:09:51.266Z,31.13
2019-02-07T00:12:22.934Z,28.93
2019-02-07T00:14:54.574Z,30.37
2019-02-07T00:17:26.240Z,30.20
2019-02-07T00:19:57.886Z,30.83
2019-02-07T00:22:29.544Z,31.30
2019-02-07T00:25:01.205Z,30.57
2019-02-07T00:27:32.854Z,32.07
2019-02-07T00:30:11.708Z,29.77
2019-02-07T00:32:43.358Z,30.13
2019-02-07T00:35:15.021Z,31.10
2019-02-07T00:37:46.675Z,29.53
2019-02-07T00:40:21.737Z,29.17
2019-02-07T00:42:53.386Z,28.43
2019-02-07T00:45:25.098Z,29.73
2019-02-07T00:47:56.810Z,28.57
2019-02-07T00:50:31.059Z,29.27
2019-02-07T00:53:01.931Z,29.50
2019-02-07T00:55:33.585Z,30.07
2019-02-07T00:58:05.235Z,30.30
2019-02-07T01:00:36.887Z,29.40
2019-02-07T01:03:08.613Z,30.77
2019-02-07T01:05:40.340Z,30.50
2019-02-07T01:08:11.998Z,31.50
2019-02-07T01:10:43.644Z,31.03
2019-02-07T01:13:15.366Z,32.20
2019-02-07T01:15:47.012Z,30.70
2019-02-07T01:18:18.689Z,30.93
2019-02-07T01:20:50.344Z,31.87
2019-02-07T01:23:22.286Z,29.93
2019-02-07T01:25:54.201Z,31.50
2019-02-07T01:28:25.873Z,31.60
2019-02-07T01:30:57.520Z,31.97
2019-02-07T01:33:29.306Z,33.03
2019-02-07T01:36:00.989Z,32.07
2019-02-07T01:38:33.074Z,30.83
2019-02-07T01:41:05.089Z,30.17
2019-02-07T01:43:37.013Z,32.03
2019-02-07T01:46:09.011Z,32.03
2019-02-07T01:48:40.930Z,32.10
2019-02-07T01:51:12.953Z,30.70
2019-02-07T01:53:45.043Z,32.13
2019-02-07T01:56:17.058Z,34.47
2019-02-07T01:58:49.115Z,33.00
2019-02-07T02:01:21.063Z,33.30
2019-02-07T02:03:53.074Z,32.47
2019-02-07T02:06:25.113Z,33.80
2019-02-07T02:08:57.434Z,34.03
2019-02-07T02:11:29.371Z,34.40
2019-02-07T02:14:01.757Z,34.60
2019-02-07T02:16:33.768Z,35.23
2019-02-07T02:19:06.055Z,34.13
2019-02-07T02:21:38.153Z,35.07
2019-02-07T02:24:10.088Z,37.83
2019-02-07T02:26:42.355Z,36.20
2019-02-07T02:29:15.478Z,36.73
2019-02-07T02:31:47.434Z,37.33
2019-02-07T02:34:19.350Z,36.47
2019-02-07T02:36:51.452Z,37.70
2019-02-07T02:39:23.373Z,36.70
2019-02-07T02:41:55.412Z,37.53
2019-02-07T02:44:27.490Z,35.83
2019-02-07T02:46:59.441Z,37.93
2019-02-07T02:49:31.425Z,35.83
2019-02-07T02:52:03.363Z,35.93
2019-02-07T02:54:39.717Z,37.43
2019-02-07T02:57:11.641Z,36.27
2019-02-07T02:59:43.572Z,36.97
2019-02-07T03:02:29.719Z,35.97
2019-02-07T03:05:03.286Z,35.27
2019-02-07T03:07:39.853Z,37.53
2019-02-07T03:10:20.020Z,36.90
2019-02-07T03:12:53.870Z,37.77
2019-02-07T03:15:49.768Z,36.47
2019-02-07T03:18:21.759Z,36.27
2019-02-07T03:21:01.412Z,36.97
2019-02-07T03:23:53.041Z,36.20
2019-02-07T03:26:32.569Z,36.60
2019-02-07T03:29:06.379Z,36.37
2019-02-07T03:31:49.323Z,36.60
2019-02-07T03:34:22.894Z,34.33
2019-02-07T03:36:59.131Z,36.00
2019-02-07T03:39:44.715Z,35.67
2019-02-07T03:42:27.037Z,35.00
2019-02-07T03:45:12.576Z,36.50
2019-02-07T03:47:58.561Z,36.53
2019-02-07T03:50:50.603Z,35.93
2019-02-07T03:53:24.168Z,37.27
2019-02-07T03:56:03.761Z,35.70
2019-02-07T03:58:52.245Z,36.50
2019-02-07T04:01:34.788Z,37.07
2019-02-07T04:04:26.453Z,35.00
2019-02-07T04:07:00.044Z,33.30
2019-02-07T04:09:37.479Z,34.60
2019-02-07T04:12:16.972Z,33.33
2019-02-07T04:14:50.547Z,34.90
2019-02-07T04:17:24.120Z,34.67
2019-02-07T04:19:57.702Z,35.37
2019-02-07T04:22:49.531Z,36.03
2019-02-07T04:25:23.525Z,34.10
2019-02-07T04:27:57.528Z,33.53
2019-02-07T04:30:31.206Z,35.57
2019-02-07T04:33:04.768Z,32.53
2019-02-07T04:35:44.294Z,32.27
2019-02-07T04:38:33.027Z,34.23
2019-02-07T04:41:23.167Z,33.10
2019-02-07T04:44:12.467Z,33.70
2019-02-07T04:47:01.100Z,34.50
2019-02-07T04:49:40.607Z,33.73
2019-02-07T04:52:20.536Z,32.57
2019-02-07T04:55:00.349Z,32.13
2019-02-07T04:57:34.119Z,32.57
2019-02-07T05:00:25.422Z,31.73
2019-02-07T05:02:59.252Z,32.03
2019-02-07T05:05:35.687Z,32.27
2019-02-07T05:08:25.603Z,32.90
2019-02-07T05:11:05.685Z,32.23
2019-02-07T05:13:39.537Z,32.27
2019-02-07T05:16:39.232Z,32.10
2019-02-07T05:19:09.320Z,32.20
2019-02-07T05:21:46.258Z,32.00
2019-02-07T05:24:25.465Z,31.33
2019-02-07T05:27:15.241Z,32.30
2019-02-07T05:29:57.968Z,31.00
2019-02-07T05:32:32.067Z,30.50
2019-02-07T05:35:09.237Z,31.20
2019-02-07T05:37:59.369Z,30.07
2019-02-07T05:40:38.937Z,32.27
2019-02-07T05:43:12.864Z,32.00
2019-02-07T05:46:01.949Z,31.03
2019-02-07T05:48:41.637Z,31.47
2019-02-07T05:51:18.135Z,29.50
2019-02-07T05:53:51.721Z,31.40
2019-02-07T05:56:31.346Z,29.13
2019-02-07T05:59:07.800Z,28.60
2019-02-07T06:01:47.420Z,26.63
2019-02-07T06:04:39.383Z,27.77
2019-02-07T06:07:12.940Z,26.00
2019-02-07T06:09:58.778Z,23.27
2019-02-07T06:12:48.461Z,25.97
2019-02-07T06:15:22.115Z,23.43
2019-02-07T06:18:10.581Z,23.83
2019-02-07T06:20:50.102Z,23.53
2019-02-07T06:23:40.158Z,23.30
2019-02-07T06:26:30.015Z,23.33
2019-02-07T06:29:12.588Z,22.17
2019-02-07T06:31:52.136Z,21.20
2019-02-07T06:34:31.390Z,21.70
2019-02-07T06:37:17.350Z,20.80
2019-02-07T06:39:50.976Z,20.13
2019-02-07T06:42:27.752Z,20.40
2019-02-07T06:45:19.377Z,19.70
2019-02-07T06:47:53.016Z,19.53
2019-02-07T06:50:29.630Z,20.63
2019-02-07T06:53:03.538Z,19.00
2019-02-07T06:55:49.010Z,19.97
2019-02-07T06:58:35.109Z,18.60
2019-02-07T07:01:25.065Z,19.40
2019-02-07T07:03:58.717Z,19.50
2019-02-07T07:06:32.292Z,18.00
2019-02-07T07:09:21.532Z,18.40
2019-02-07T07:11:58.063Z,18.53
2019-02-07T07:14:37.562Z,17.40
2019-02-07T07:17:11.135Z,18.67
2019-02-07T07:19:44.697Z,17.10
2019-02-07T07:22:21.173Z,17.33
2019-02-07T07:25:03.451Z,17.20
2019-02-07T07:27:42.700Z,16.60
2019-02-07T07:30:17.569Z,16.53
2019-02-07T07:32:57.282Z,15.77
2019-02-07T07:35:40.073Z,15.70
2019-02-07T07:38:16.344Z,15.40
2019-02-07T07:40:58.721Z,15.33
2019-02-07T07:43:50.615Z,16.50
2019-02-07T07:46:27.461Z,15.87
2019-02-07T07:49:13.318Z,15.50
2019-02-07T07:51:46.950Z,14.40
2019-02-07T07:54:26.352Z,15.30
2019-02-07T07:56:59.902Z,15.27
2019-02-07T07:59:33.517Z,14.57
2019-02-07T08:02:13.548Z,14.37
2019-02-07T08:04:56.366Z,15.27
2019-02-07T08:07:36.546Z,13.90
2019-02-07T08:10:29.863Z,14.23
2019-02-07T08:13:03.411Z,15.07
2019-02-07T08:15:40.103Z,13.80
2019-02-07T08:18:30.012Z,14.70
2019-02-07T08:21:19.778Z,13.87
2019-02-07T08:23:59.476Z,15.13
2019-02-07T08:26:42.259Z,14.97
2019-02-07T08:29:15.944Z,15.37
2019-02-07T08:31:49.625Z,14.30
2019-02-07T08:34:37.849Z,13.53
2019-02-07T08:37:20.570Z,14.40
2019-02-07T08:40:00.100Z,14.40
2019-02-07T08:42:42.154Z,13.63
2019-02-07T08:45:15.931Z,14.20
2019-02-07T08:47:58.443Z,14.27
2019-02-07T08:50:40.114Z,14.17
2019-02-07T08:53:19.395Z,14.13
2019-02-07T08:55:55.692Z,13.50
2019-02-07T08:58:34.944Z,13.30
2019-02-07T09:01:11.338Z,13.87
2019-02-07T09:03:46.512Z,14.40
2019-02-07T09:06:23.141Z,13.70
2019-02-07T09:09:08.953Z,13.37
2019-02-07T09:11:42.548Z,13.47
2019-02-07T09:14:32.238Z,13.67
2019-02-07T09:17:15.260Z,14.63
2019-02-07T09:20:07.373Z,14.00
2019-02-07T09:22:57.219Z,13.97
2019-02-07T09:25:34.549Z,13.33
2019-02-07T09:28:24.708Z,14.60
2019-02-07T09:31:14.625Z,14.43
2019-02-07T09:33:50.929Z,14.20
2019-02-07T09:36:40.798Z,14.77
2019-02-07T09:39:32.224Z,13.20
2019-02-07T09:42:06.281Z,13.37
2019-02-07T09:44:52.098Z,13.93
2019-02-07T09:47:41.038Z,13.60
2019-02-07T09:50:15.327Z,12.93
2019-02-07T09:53:04.001Z,13.20
2019-02-07T09:55:40.529Z,13.63
2019-02-07T09:58:31.539Z,14.53
2019-02-07T10:01:20.106Z,12.40
2019-02-07T10:03:59.444Z,13.60
2019-02-07T10:06:50.551Z,12.57
2019-02-07T10:09:30.207Z,13.60
2019-02-07T10:12:12.680Z,13.30
2019-02-07T10:14:46.702Z,13.20
2019-02-07T10:17:23.749Z,12.70
2019-02-07T10:19:59.016Z,12.00
2019-02-07T10:22:35.883Z,12.80
2019-02-07T10:25:19.795Z,12.93
2019-02-07T10:27:59.301Z,13.47
2019-02-07T10:30:33.360Z,12.23
2019-02-07T10:33:13.955Z,12.43
2019-02-07T10:36:02.606Z,12.13
2019-02-07T10:38:48.476Z,12.20
2019-02-07T10:41:28.251Z,12.80
2019-02-07T10:44:01.910Z,11.97
2019-02-07T10:46:52.022Z,12.43
2019-02-07T10:49:42.519Z,12.20
2019-02-07T10:52:19.555Z,11.47
2019-02-07T10:55:09.481Z,11.33
2019-02-07T10:57:43.104Z,11.40
2019-02-07T11:00:28.533Z,11.57
2019-02-07T11:03:18.365Z,11.57
2019-02-07T11:05:54.560Z,11.03
2019-02-07T11:08:36.558Z,11.00
2019-02-07T11:11:10.163Z,10.57
2019-02-07T11:13:48.445Z,10.30
2019-02-07T11:16:37.383Z,10.47
2019-02-07T11:19:21.295Z,9.53
2019-02-07T11:21:55.465Z,9.73
2019-02-07T11:24:45.460Z,10.43
2019-02-07T11:27:19.229Z,9.47
2019-02-07T11:29:59.105Z,9.27
2019-02-07T11:32:32.672Z,10.07
2019-02-07T11:35:23.099Z,10.30
2019-02-07T11:38:05.668Z,10.20
2019-02-07T11:40:41.300Z,9.87
2019-02-07T11:43:16.601Z,10.03
2019-02-07T11:45:56.390Z,10.03
2019-02-07T11:48:30.281Z,9.63
2019-02-07T11:51:08.461Z,10.07
2019-02-07T11:53:47.830Z,9.67
2019-02-07T11:56:30.305Z,9.80
2019-02-07T11:59:03.971Z,10.17
2019-02-07T12:01:37.810Z,10.30
2019-02-07T12:04:25.628Z,9.00
2019-02-07T12:06:59.209Z,10.43
2019-02-07T12:09:45.304Z,10.20
2019-02-07T12:12:28.486Z,9.50
2019-02-07T12:15:18.458Z,10.33
2019-02-07T12:17:54.945Z,9.73
2019-02-07T12:20:44.689Z,10.80
2019-02-07T12:23:18.255Z,10.77
2019-02-07T12:25:51.839Z,9.63
2019-02-07T12:28:27.272Z,10.40
2019-02-07T12:31:10.817Z,10.80
2019-02-07T12:33:50.398Z,10.50
2019-02-07T12:36:23.966Z,10.03
2019-02-07T12:39:01.009Z,10.43
2019-02-07T12:41:47.027Z,9.07
2019-02-07T12:44:23.709Z,9.90
2019-02-07T12:47:15.540Z,9.40
2019-02-07T12:50:05.390Z,10.03
2019-02-07T12:52:49.507Z,10.57
2019-02-07T12:55:23.170Z,9.83
2019-02-07T12:58:11.806Z,10.07
2019-02-07T13:00:51.901Z,9.80
2019-02-07T13:03:41.625Z,10.83
2019-02-07T13:06:15.905Z,10.13
2019-02-07T13:08:50.102Z,10.03
2019-02-07T13:11:23.770Z,10.03
2019-02-07T13:14:17.164Z,10.87
2019-02-07T13:16:56.755Z,10.97
2019-02-07T13:19:40.200Z,10.37
2019-02-07T13:22:15.770Z,10.13
2019-02-07T13:24:52.459Z,10.70
2019-02-07T13:27:38.085Z,11.33
2019-02-07T13:30:19.400Z,10.80
2019-02-07T13:32:58.827Z,10.73
2019-02-07T13:35:47.647Z,11.00
2019-02-07T13:38:30.098Z,10.47
2019-02-07T13:41:19.093Z,10.27
2019-02-07T13:44:04.448Z,11.23
2019-02-07T13:46:38.415Z,11.10
2019-02-07T13:49:15.581Z,10.30
2019-02-07T13:51:55.164Z,10.83
2019-02-07T13:54:34.812Z,11.33
2019-02-07T13:57:20.624Z,12.07
2019-02-07T14:00:10.423Z,10.17
2019-02-07T14:02:53.012Z,11.50
2019-02-07T14:05:42.891Z,10.83
2019-02-07T14:08:19.140Z,10.43
2019-02-07T14:10:55.607Z,11.00
2019-02-07T14:13:45.284Z,10.90
2019-02-07T14:16:21.401Z,11.03
2019-02-07T14:19:03.972Z,13.07
2019-02-07T14:21:43.672Z,12.70
2019-02-07T14:24:33.615Z,12.33
2019-02-07T14:27:16.298Z,12.53
2019-02-07T14:29:49.851Z,11.87
2019-02-07T14:32:39.648Z,11.00
2019-02-07T14:35:30.450Z,11.90
2019-02-07T14:38:06.850Z,11.97
2019-02-07T14:40:43.353Z,11.23
2019-02-07T14:43:17.213Z,13.07
2019-02-07T14:45:56.743Z,11.53
2019-02-07T14:48:29.042Z,12.10
2019-02-07T14:51:00.978Z,11.70
2019-02-07T14:53:33.278Z,12.53
2019-02-07T14:56:05.719Z,11.90
2019-02-07T14:58:38.040Z,11.53
2019-02-07T15:01:10.489Z,11.83
2019-02-07T15:03:42.539Z,12.37
2019-02-07T15:06:14.811Z,12.70
2019-02-07T15:08:46.831Z,11.87
2019-02-07T15:11:18.775Z,12.37
2019-02-07T15:13:51.143Z,11.40
2019-02-07T15:16:23.073Z,12.03
2019-02-07T15:18:55.086Z,11.83
2019-02-07T15:21:27.138Z,11.97
2019-02-07T15:23:59.102Z,12.83
2019-02-07T15:26:31.264Z,11.70
2019-02-07T15:29:03.331Z,12.07
2019-02-07T15:31:35.270Z,12.63
2019-02-07T15:34:07.709Z,12.07
2019-02-07T15:36:39.875Z,11.57
2019-02-07T15:39:15.236Z,12.27
2019-02-07T15:41:47.717Z,13.07
2019-02-07T15:44:21.181Z,11.97
2019-02-07T15:46:53.131Z,12.20
2019-02-07T15:49:25.056Z,12.47
2019-02-07T16:05:57.032Z,12.67
2019-02-07T16:08:28.949Z,12.70
2019-02-07T16:11:01.285Z,12.73
2019-02-07T16:13:33.517Z,12.90
2019-02-07T16:16:05.610Z,12.93
2019-02-07T16:18:37.527Z,13.53
2019-02-07T16:21:09.590Z,12.70
2019-02-07T16:23:41.517Z,13.03
2019-02-07T16:26:14.771Z,13.60
2019-02-07T16:28:46.805Z,13.17
2019-02-07T16:31:18.780Z,14.03
2019-02-07T16:33:50.750Z,16.15
2019-02-07T16:36:23.027Z,13.50
2019-02-07T16:38:55.593Z,13.93
2019-02-07T16:41:27.606Z,13.40
2019-02-07T16:43:59.535Z,13.83
2019-02-07T16:46:31.536Z,14.03
2019-02-07T16:49:03.464Z,13.13
2019-02-07T16:51:35.492Z,12.93
2019-02-07T16:54:08.110Z,13.43
2019-02-07T16:56:40.068Z,14.50
2019-02-07T16:59:12.128Z,14.40
2019-02-07T17:01:45.174Z,14.73
2019-02-07T17:04:17.406Z,14.17
2019-02-07T17:06:49.372Z,13.90
2019-02-07T17:09:23.290Z,16.23
2019-02-07T17:11:55.814Z,15.63
2019-02-07T17:14:30.042Z,14.13
2019-02-07T17:17:02.098Z,18.00
2019-02-07T17:19:34.206Z,16.63
2019-02-07T17:22:06.501Z,15.63
2019-02-07T17:24:38.435Z,16.03
2019-02-07T17:27:11.127Z,14.70
2019-02-07T17:29:43.051Z,15.67
2019-02-07T17:32:15.301Z,15.80
2019-02-07T17:34:47.275Z,14.50
2019-02-07T17:37:19.520Z,14.97
2019-02-07T17:39:51.896Z,13.57
2019-02-07T17:42:24.131Z,15.17
2019-02-07T17:44:56.123Z,15.03
2019-02-07T17:47:28.134Z,15.27
2019-02-07T17:50:00.218Z,14.37
2019-02-07T17:52:32.156Z,15.47
2019-02-07T17:55:06.421Z,15.47
2019-02-07T17:57:38.688Z,15.77
2019-02-07T18:00:31.190Z,15.50
2019-02-07T18:03:03.510Z,14.93
2019-02-07T18:05:37.378Z,14.67
2019-02-07T18:08:10.183Z,15.83
2019-02-07T18:10:42.531Z,17.03
2019-02-07T18:13:15.022Z,14.87
2019-02-07T18:15:46.976Z,16.23
2019-02-07T18:18:18.971Z,17.13
2019-02-07T18:20:52.036Z,17.60
2019-02-07T18:23:23.965Z,16.63
2019-02-07T18:25:56.182Z,17.83
2019-02-07T18:28:28.203Z,16.57
2019-02-07T18:31:00.234Z,18.67
2019-02-07T18:33:32.219Z,18.17
2019-02-07T18:36:04.292Z,18.80
2019-02-07T18:38:36.388Z,18.00
2019-02-07T18:41:08.903Z,19.10
2019-02-07T18:43:40.899Z,18.23
2019-02-07T18:46:12.914Z,18.03
2019-02-07T18:48:44.899Z,18.97
2019-02-07T18:51:16.933Z,19.80
2019-02-07T18:53:48.861Z,19.60
2019-02-07T18:56:20.821Z,19.07
2019-02-07T18:58:52.745Z,19.30
2019-02-07T19:01:25.015Z,18.57
2019-02-07T19:03:56.965Z,19.93
2019-02-07T19:06:28.890Z,18.43
2019-02-07T19:09:01.591Z,20.13
2019-02-07T19:11:33.530Z,19.87
2019-02-07T19:14:05.859Z,22.53
2019-02-07T19:16:37.859Z,21.17
2019-02-07T19:19:09.863Z,22.03
2019-02-07T19:21:42.210Z,20.50
2019-02-07T19:24:14.101Z,20.40
2019-02-07T19:26:46.102Z,20.20
2019-02-07T19:29:18.032Z,20.50
2019-02-07T19:31:49.982Z,19.70
2019-02-07T19:34:21.915Z,18.20
2019-02-07T19:36:53.853Z,19.37
2019-02-07T19:39:25.871Z,19.97
2019-02-07T19:41:57.862Z,20.17
2019-02-07T19:44:29.793Z,19.30
2019-02-07T19:47:01.789Z,20.03
2019-02-07T19:49:33.718Z,19.43
2019-02-07T19:52:08.072Z,19.97
2019-02-07T19:54:39.784Z,18.77
2019-02-07T19:57:11.779Z,18.13
2019-02-07T19:59:44.080Z,19.87
2019-02-07T20:02:16.000Z,19.93
2019-02-07T20:04:48.102Z,19.50
2019-02-07T20:07:20.027Z,19.60
2019-02-07T20:09:51.965Z,18.80
2019-02-07T20:12:23.886Z,18.57
2019-02-07T20:14:55.818Z,18.57
2019-02-07T20:17:27.759Z,17.90
2019-02-07T20:19:59.989Z,17.87
2019-02-07T20:22:32.252Z,18.03
2019-02-07T20:25:06.187Z,17.70
2019-02-07T20:27:38.203Z,17.20
2019-02-07T20:30:26.887Z,17.40
2019-02-07T20:32:59.361Z,16.87
2019-02-07T20:35:31.365Z,17.17
2019-02-07T20:38:03.290Z,16.33
2019-02-07T20:40:35.868Z,16.80
2019-02-07T20:43:08.873Z,16.10
2019-02-07T20:45:41.181Z,15.97
2019-02-07T20:48:13.102Z,15.80
2019-02-07T20:50:45.057Z,15.37
2019-02-07T20:53:17.042Z,16.50
2019-02-07T20:55:49.371Z,15.43
2019-02-07T20:58:21.293Z,16.83
2019-02-07T21:00:53.285Z,17.53
2019-02-07T21:03:25.281Z,15.70
2019-02-07T21:05:57.572Z,16.30
2019-02-07T21:08:29.495Z,16.47
2019-02-07T21:11:01.989Z,15.90
2019-02-07T21:13:34.013Z,15.97
2019-02-07T21:16:06.327Z,16.93
2019-02-07T21:18:38.258Z,16.80
2019-02-07T21:21:10.556Z,15.47
2019-02-07T21:23:42.501Z,16.00
2019-02-07T21:26:14.434Z,16.27
2019-02-07T21:28:46.471Z,14.93
2019-02-07T21:31:18.505Z,15.70
2019-02-07T21:33:50.481Z,16.27
2019-02-07T21:36:22.395Z,15.40
2019-02-07T21:38:54.332Z,15.83
2019-02-07T21:41:26.280Z,15.60
2019-02-07T21:43:58.272Z,15.77
2019-02-07T21:46:30.252Z,15.83
2019-02-07T21:49:02.549Z,15.37
2019-02-07T21:51:34.844Z,14.80
2019-02-07T21:54:07.385Z,15.23
2019-02-07T21:56:39.591Z,14.77
2019-02-07T21:59:11.516Z,15.13
2019-02-07T22:01:44.132Z,15.10
2019-02-07T22:04:16.506Z,15.20
2019-02-07T22:06:48.442Z,14.57
2019-02-07T22:09:20.376Z,15.90
2019-02-07T22:11:52.326Z,14.37
2019-02-07T22:14:24.631Z,13.03
2019-02-07T22:16:56.562Z,14.87
2019-02-07T22:19:28.545Z,15.10
2019-02-07T22:22:00.482Z,14.33
2019-02-07T22:24:32.746Z,13.80
2019-02-07T22:27:05.620Z,14.37
2019-02-07T22:29:37.534Z,14.37
2019-02-07T22:32:09.558Z,14.20
2019-02-07T22:34:41.474Z,14.00
2019-02-07T22:37:13.419Z,12.10
2019-02-07T22:39:45.721Z,12.77
2019-02-07T22:42:17.724Z,12.70
2019-02-07T22:44:49.661Z,12.33
2019-02-07T22:47:21.613Z,12.37
2019-02-07T22:49:53.545Z,12.77
2019-02-07T22:52:25.942Z,12.37
2019-02-07T22:54:57.870Z,13.87
2019-02-07T22:57:30.107Z,13.60
2019-02-07T23:00:02.051Z,12.43
2019-02-07T23:02:34.041Z,11.77
2019-02-07T23:05:07.510Z,12.30
2019-02-07T23:07:39.449Z,13.23
2019-02-07T23:10:11.517Z,12.87
2019-02-07T23:12:43.443Z,12.47
2019-02-07T23:15:15.516Z,12.93
2019-02-07T23:17:47.503Z,12.23
2019-02-07T23:20:19.829Z,12.50
2019-02-07T23:22:51.813Z,12.63
2019-02-07T23:25:23.760Z,11.87
2019-02-07T23:27:55.935Z,12.77
2019-02-07T23:30:27.868Z,12.57
2019-02-07T23:32:59.867Z,11.90
2019-02-07T23:35:31.865Z,11.63
2019-02-07T23:38:04.501Z,11.77
2019-02-07T23:40:36.727Z,11.43
2019-02-07T23:43:09.467Z,10.73
2019-02-07T23:45:41.454Z,12.13
2019-02-07T23:48:13.546Z,10.30
2019-02-07T23:50:45.545Z,10.43
2019-02-07T23:53:17.527Z,10.40
2019-02-07T23:55:49.769Z,9.13
2019-02-07T23:58:21.898Z,10.07
